| Date | Time | Temp. (oF) | Dew Point (oF) | Rel. Hum. (%) | Press. (in.) | Wind Dir. | Wind Speed (mph) | Hourly Rainfall (in.) |
|
|---|---|---|---|---|---|---|---|---|---|
| 1 | 10/16 | 00:00 | 48 | 35 | 63 | 29.95 | SW | 2 | 0.00 |
| 2 | 10/15 | 23:00 | 49 | 34 | 58 | 29.93 | SSW | 4 | 0.00 |
| 3 | 10/15 | 22:00 | 51 | 33 | 51 | 29.90 | SW | 1 | 0.00 |
| 4 | 10/15 | 21:00 | 52 | 35 | 53 | 29.89 | SW | 4 | 0.00 |
| 5 | 10/15 | 20:00 | 54 | 35 | 49 | 29.86 | WNW | 5 | 0.00 |
| 6 | 10/15 | 19:00 | 55 | 32 | 43 | 29.81 | WNW | 20 | 0.00 |
| 7 | 10/15 | 18:00 | 57 | 34 | 42 | 29.77 | WNW | 11 | 0.00 |
| 8 | 10/15 | 17:00 | 58 | 34 | 41 | 29.72 | NW | 7 | 0.00 |
| 9 | 10/15 | 16:00 | 59 | 36 | 43 | 29.67 | W | 9 | 0.00 |
| 10 | 10/15 | 15:00 | 59 | 38 | 46 | 29.65 | WSW | 18 | 0.00 |
| 11 | 10/15 | 14:00 | 57 | 38 | 51 | 29.64 | NW | 9 | 0.00 |
| 12 | 10/15 | 13:00 | 58 | 40 | 52 | 29.60 | W | 10 | 0.00 |
| 13 | 10/15 | 12:00 | 60 | 42 | 52 | 29.57 | WSW | 16 | 0.00 |
| 14 | 10/15 | 11:00 | 59 | 43 | 57 | 29.54 | S | 9 | 0.00 |
| 15 | 10/15 | 10:00 | 58 | 45 | 63 | 29.50 | WSW | 12 | 0.00 |
| 16 | 10/15 | 09:00 | 57 | 46 | 68 | 29.46 | SW | 6 | 0.00 |
| 17 | 10/15 | 08:00 | 56 | 46 | 71 | 29.41 | WSW | 9 | 0.00 |
| 18 | 10/15 | 07:00 | 56 | 47 | 73 | 29.37 | S | 5 | 0.00 |
| 19 | 10/15 | 06:00 | 55 | 47 | 75 | 29.32 | WSW | 5 | 0.00 |
| 20 | 10/15 | 05:00 | 56 | 48 | 76 | 29.30 | SW | 14 | 0.00 |
| 21 | 10/15 | 04:00 | 56 | 51 | 85 | 29.29 | WSW | 6 | 0.00 |
| 22 | 10/15 | 03:00 | 56 | 55 | 99 | 29.29 | SSW | 8 | 0.00 |
| 23 | 10/15 | 02:00 | 57 | 57 | 100 | 29.30 | S | 1 | 0.06 |
| 24 | 10/15 | 01:00 | 57 | 57 | 100 | 29.34 | NW | 2 | 0.11 |